Time;durP1;ratioP1;P1;durP2;ratioP2;P2;SDS_P1;SDS_P2;PMS_P1;PMS_P2;Temp;Humidity;BMP_temperature;BMP_pressure;BME280_temperature;BME280_humidity;BME280_pressure;Samples;Min_cycle;Max_cycle;Signal;HPM_P1;HPM_P2
2022/06/21 00:03:11;;;;;;;;;;;;;;;17.93;54.28;99708.83;1717730;83;20212;-55
2022/06/21 00:06:17;;;;;;;;;;;;;;;17.88;54.29;99704.02;1717640;83;20525;-56
2022/06/21 00:09:23;;;;;;;;;;;;;;;17.85;54.40;99704.49;1716533;83;20317;-55
2022/06/21 00:12:28;;;;;;;;;;;;;;;17.81;54.52;99697.73;1717682;83;20211;-55
2022/06/21 00:15:32;;;;;;;;;;;;;;;17.76;54.50;99694.30;1717863;83;20267;-55
2022/06/21 00:18:39;;;;;;;;;;;;;;;17.74;54.63;99699.78;1717747;82;20548;-55
2022/06/21 00:21:45;;;;;;;;;;;;;;;17.70;54.66;99689.72;1717158;83;20181;-55
2022/06/21 00:24:51;;;;;;;;;;;;;;;17.69;54.81;99691.34;1717487;83;20596;-54
2022/06/21 00:27:57;;;;;;;;;;;;;;;17.69;54.96;99687.19;1717755;83;20215;-55
2022/06/21 00:31:02;;;;;;;;;;;;;;;17.67;54.96;99691.59;1716465;83;20220;-55
2022/06/21 00:34:09;;;;;;;;;;;;;;;17.68;55.08;99679.95;1717257;83;20200;-55
2022/06/21 00:37:10;;;;;;;;;;;;;;;17.69;55.18;99678.89;1716590;83;20208;-55
2022/06/21 00:40:27;;;;;;;;;;;;;;;17.67;55.16;99674.13;1717760;83;20188;-55
2022/06/21 00:43:35;;;;;;;;;;;;;;;17.62;55.01;99679.52;1717766;83;20200;-55
2022/06/21 00:46:52;;;;;;;;;;;;;;;17.55;54.99;99670.51;1717754;83;20216;-55
2022/06/21 00:50:01;;;;;;;;;;;;;;;17.51;55.16;99659.06;1710238;83;20227;-55
2022/06/21 00:53:20;;;;;;;;;;;;;;;17.48;55.24;99665.61;1717641;83;20204;-55
2022/06/21 00:56:43;;;;;;;;;;;;;;;17.45;55.31;99658.64;1717737;83;20208;-55
2022/06/21 00:59:47;;;;;;;;;;;;;;;17.44;55.47;99656.94;1712293;82;20221;-54
2022/06/21 01:02:52;;;;;;;;;;;;;;;17.46;55.64;99663.08;1703046;84;20237;-55
2022/06/21 01:05:56;;;;;;;;;;;;;;;17.47;55.71;99664.75;1696054;84;20200;-55
2022/06/21 01:09:05;;;;;;;;;;;;;;;17.47;55.82;99656.45;1702968;84;20213;-55
2022/06/21 01:12:15;;;;;;;;;;;;;;;17.50;55.92;99652.39;1702904;84;20185;-55
2022/06/21 01:15:24;;;;;;;;;;;;;;;17.52;56.00;99647.46;1708445;84;20192;-55
2022/06/21 01:18:29;;;;;;;;;;;;;;;17.53;56.07;99640.84;1704185;84;20299;-55
2022/06/21 01:21:34;;;;;;;;;;;;;;;17.56;56.13;99643.13;1704130;83;20217;-55
2022/06/21 01:24:45;;;;;;;;;;;;;;;17.56;56.11;99638.97;1646704;86;20193;-55
2022/06/21 01:27:54;;;;;;;;;;;;;;;17.55;56.13;99638.68;1656084;86;20214;-54
2022/06/21 01:30:59;;;;;;;;;;;;;;;17.51;56.10;99628.63;1659294;86;20227;-54
2022/06/21 01:34:04;;;;;;;;;;;;;;;17.49;56.07;99635.48;1659350;86;20205;-55
2022/06/21 01:37:12;;;;;;;;;;;;;;;17.41;56.07;99623.35;1659271;86;20181;-55
2022/06/21 01:40:25;;;;;;;;;;;;;;;17.38;56.15;99627.42;1659225;86;20201;-55
2022/06/21 01:43:32;;;;;;;;;;;;;;;17.36;56.26;99621.84;1659241;86;20209;-55
2022/06/21 01:46:38;;;;;;;;;;;;;;;17.36;56.38;99619.06;1659195;86;20862;-55
2022/06/21 01:49:44;;;;;;;;;;;;;;;17.37;56.47;99616.06;1659318;86;20193;-55
2022/06/21 01:52:51;;;;;;;;;;;;;;;17.39;56.52;99611.67;1659207;86;20229;-55
2022/06/21 01:56:05;;;;;;;;;;;;;;;17.38;56.58;99612.20;1658898;86;20553;-54
2022/06/21 01:59:14;;;;;;;;;;;;;;;17.40;56.64;99614.73;1658955;86;20213;-54
2022/06/21 02:02:29;;;;;;;;;;;;;;;17.42;56.71;99612.58;1659765;82;20245;-55
2022/06/21 02:05:37;;;;;;;;;;;;;;;17.43;56.73;99605.41;1630231;88;20199;-55
2022/06/21 02:08:50;;;;;;;;;;;;;;;17.45;56.75;99606.59;1658613;86;20193;-55
2022/06/21 02:12:11;;;;;;;;;;;;;;;17.46;56.79;99599.97;1658466;86;20601;-55
2022/06/21 02:15:15;;;;;;;;;;;;;;;17.47;56.83;99599.72;1658277;86;20189;-55
2022/06/21 02:18:20;;;;;;;;;;;;;;;17.49;56.88;99605.05;1658528;86;20234;-55
2022/06/21 02:21:34;;;;;;;;;;;;;;;17.51;56.88;99603.72;1658390;86;20311;-55
2022/06/21 02:24:41;;;;;;;;;;;;;;;17.53;56.92;99595.17;1658316;86;20197;-54
2022/06/21 02:27:47;;;;;;;;;;;;;;;17.56;56.95;99591.39;1658713;86;20510;-55
2022/06/21 02:30:52;;;;;;;;;;;;;;;17.61;56.98;99590.66;1658613;86;20585;-54
2022/06/21 02:33:59;;;;;;;;;;;;;;;17.64;57.01;99588.27;1658769;86;20573;-55
2022/06/21 02:37:09;;;;;;;;;;;;;;;17.70;57.04;99590.59;1658525;86;20229;-55
2022/06/21 02:40:14;;;;;;;;;;;;;;;17.76;57.08;99582.70;1657557;86;20240;-55
2022/06/21 02:43:24;;;;;;;;;;;;;;;17.82;57.08;99589.50;1658411;86;20245;-55
2022/06/21 02:46:34;;;;;;;;;;;;;;;17.89;57.12;99594.92;1658329;86;20212;-55
2022/06/21 02:49:47;;;;;;;;;;;;;;;17.96;57.11;99583.72;1658386;86;20221;-54
2022/06/21 02:52:53;;;;;;;;;;;;;;;18.02;57.12;99582.21;1667386;85;20192;-55
2022/06/21 02:56:04;;;;;;;;;;;;;;;18.10;57.14;99577.67;1684870;85;20191;-54
2022/06/21 02:59:08;;;;;;;;;;;;;;;18.17;57.16;99576.98;1685234;85;20648;-54
2022/06/21 03:02:23;;;;;;;;;;;;;;;18.25;57.16;99572.45;1724022;80;20221;-55
2022/06/21 03:05:29;;;;;;;;;;;;;;;18.32;57.16;99574.55;1747147;82;20209;-54
2022/06/21 03:08:34;;;;;;;;;;;;;;;18.41;57.15;99572.28;1715346;83;20552;-55
2022/06/21 03:11:45;;;;;;;;;;;;;;;18.48;57.13;99566.03;1789570;80;20566;-57
2022/06/21 03:14:50;;;;;;;;;;;;;;;18.54;57.12;99562.27;1789207;80;20207;-57
2022/06/21 03:18:02;;;;;;;;;;;;;;;18.60;57.10;99566.28;1788548;80;20202;-56
2022/06/21 03:21:09;;;;;;;;;;;;;;;18.66;57.12;99560.30;1789555;80;20219;-56
2022/06/21 03:24:23;;;;;;;;;;;;;;;18.71;57.13;99561.23;1802546;79;20566;-57
2022/06/21 03:27:44;;;;;;;;;;;;;;;18.77;57.17;99563.03;1789455;80;20195;-57
2022/06/21 03:30:48;;;;;;;;;;;;;;;18.86;57.18;99557.91;1763607;80;20586;-57
2022/06/21 03:33:54;;;;;;;;;;;;;;;18.93;57.24;99558.03;1788487;80;20590;-57
2022/06/21 03:36:59;;;;;;;;;;;;;;;19.02;57.27;99550.16;1789141;80;20316;-57
2022/06/21 03:43:31;;;;;;;;;;;;;;;19.19;57.29;99549.08;1789177;80;20870;-57
2022/06/21 03:46:41;;;;;;;;;;;;;;;19.28;57.37;99540.66;1788863;80;20631;-57
2022/06/21 03:49:56;;;;;;;;;;;;;;;19.38;57.39;99537.77;1788738;80;20254;-57
2022/06/21 03:53:08;;;;;;;;;;;;;;;19.49;57.45;99543.78;1789220;80;20222;-57
2022/06/21 03:56:20;;;;;;;;;;;;;;;19.60;57.49;99543.66;1789792;80;20199;-58
2022/06/21 03:59:37;;;;;;;;;;;;;;;19.70;57.50;99544.36;1789909;80;20448;-57
2022/06/21 04:02:59;;;;;;;;;;;;;;;19.80;57.55;99543.13;1793596;78;20644;-58
2022/06/21 04:06:10;;;;;;;;;;;;;;;19.89;57.56;99549.92;1753537;81;20253;-56
2022/06/21 04:09:18;;;;;;;;;;;;;;;20.00;57.61;99547.03;1753384;81;20220;-57
2022/06/21 04:12:49;;;;;;;;;;;;;;;20.09;57.63;99544.66;1753053;82;20479;-57
2022/06/21 04:16:04;;;;;;;;;;;;;;;20.19;57.63;99542.02;1753849;81;20256;-59
2022/06/21 04:19:16;;;;;;;;;;;;;;;20.29;57.62;99541.63;1753754;81;20220;-57
2022/06/21 04:22:35;;;;;;;;;;;;;;;20.36;57.63;99540.86;1754223;81;20220;-58
2022/06/21 04:25:47;;;;;;;;;;;;;;;20.43;57.64;99533.17;1753906;82;20228;-57
2022/06/21 04:29:11;;;;;;;;;;;;;;;20.55;57.69;99535.82;1741077;82;20564;-57
2022/06/21 04:32:31;;;;;;;;;;;;;;;20.64;57.70;99535.63;1753470;81;20255;-57
2022/06/21 04:35:42;;;;;;;;;;;;;;;20.75;57.72;99527.69;1673813;84;20229;-58
2022/06/21 04:38:52;;;;;;;;;;;;;;;20.87;57.75;99531.13;1699186;84;20224;-58
2022/06/21 04:42:25;;;;;;;;;;;;;;;21.01;57.76;99517.68;1699241;84;20284;-57
2022/06/21 04:45:43;;;;;;;;;;;;;;;21.14;57.75;99520.00;1699820;84;20209;-57
2022/06/21 04:49:12;;;;;;;;;;;;;;;21.28;57.73;99524.05;1728816;81;20185;-58
2022/06/21 04:52:25;;;;;;;;;;;;;;;21.41;57.70;99515.22;1740830;81;20205;-57
2022/06/21 04:55:33;;;;;;;;;;;;;;;21.55;57.68;99519.25;1731831;81;20223;-57
2022/06/21 04:58:39;;;;;;;;;;;;;;;21.68;57.60;99514.58;1713388;82;20603;-57
2022/06/21 05:01:45;;;;;;;;;;;;;;;21.79;57.55;99506.05;1704822;81;20274;-58
2022/06/21 05:04:50;;;;;;;;;;;;;;;21.90;57.51;99505.00;1715418;81;20212;-58
2022/06/21 05:08:01;;;;;;;;;;;;;;;22.02;57.51;99502.81;1731312;83;20301;-59
2022/06/21 05:11:09;;;;;;;;;;;;;;;22.13;57.48;99500.39;1729177;82;20665;-60
2022/06/21 05:14:24;;;;;;;;;;;;;;;22.24;57.48;99498.47;1701747;84;20225;-57
2022/06/21 05:17:30;;;;;;;;;;;;;;;22.38;57.46;99498.78;1715451;83;20278;-57
2022/06/21 05:20:41;;;;;;;;;;;;;;;22.51;57.44;99496.34;1729410;83;20222;-57
2022/06/21 05:23:46;;;;;;;;;;;;;;;22.66;57.38;99488.59;1687303;84;20231;-57
2022/06/21 05:27:08;;;;;;;;;;;;;;;22.80;57.29;99485.55;1665727;83;20246;-57
2022/06/21 05:30:26;;;;;;;;;;;;;;;22.93;57.21;99486.41;1704748;84;20863;-57
2022/06/21 05:33:39;;;;;;;;;;;;;;;23.07;57.16;99484.73;1678623;85;20836;-56
2022/06/21 05:36:45;;;;;;;;;;;;;;;23.20;57.07;99464.06;1644025;87;20221;-57
2022/06/21 05:39:52;;;;;;;;;;;;;;;23.39;56.97;99472.73;1701506;83;20537;-57
2022/06/21 05:43:00;;;;;;;;;;;;;;;23.56;56.88;99467.70;1741615;82;20273;-58
2022/06/21 05:46:09;;;;;;;;;;;;;;;23.78;56.83;99461.21;1733211;82;20258;-57
2022/06/21 05:49:14;;;;;;;;;;;;;;;23.97;56.69;99465.65;1756194;81;20216;-58
2022/06/21 05:52:26;;;;;;;;;;;;;;;24.16;56.46;99461.09;1737553;81;20264;-57
2022/06/21 05:55:37;;;;;;;;;;;;;;;24.33;56.29;99461.56;1752696;80;20236;-58
2022/06/21 05:58:46;;;;;;;;;;;;;;;24.50;56.08;99460.63;1732952;80;20240;-57
2022/06/21 06:02:01;;;;;;;;;;;;;;;24.66;55.83;99453.81;1742440;80;20239;-56
2022/06/21 06:05:18;;;;;;;;;;;;;;;24.80;55.53;99446.49;1714846;82;20208;-58
2022/06/21 06:08:35;;;;;;;;;;;;;;;24.92;55.30;99449.20;1765395;81;20215;-57
2022/06/21 06:12:00;;;;;;;;;;;;;;;25.06;55.05;99447.95;1696428;84;20225;-57
2022/06/21 06:15:15;;;;;;;;;;;;;;;25.17;54.83;99441.13;1716004;83;20208;-58
2022/06/21 06:18:35;;;;;;;;;;;;;;;25.31;54.54;99442.12;1640238;86;20224;-59
2022/06/21 06:21:47;;;;;;;;;;;;;;;25.43;54.27;99429.16;1641839;86;20560;-60
2022/06/21 06:25:03;;;;;;;;;;;;;;;25.56;54.04;99424.27;1676171;83;20198;-60
2022/06/21 06:28:11;;;;;;;;;;;;;;;25.67;53.81;99422.42;1683119;84;20222;-60
2022/06/21 06:31:37;;;;;;;;;;;;;;;25.79;53.49;99424.83;1744402;82;20827;-59
2022/06/21 06:34:46;;;;;;;;;;;;;;;25.91;53.23;99421.87;1767879;80;20200;-57
2022/06/21 06:37:50;;;;;;;;;;;;;;;26.02;52.93;99412.81;1773752;81;20207;-58
2022/06/21 06:41:02;;;;;;;;;;;;;;;26.12;52.76;99411.25;1715856;83;20216;-58
2022/06/21 06:44:21;;;;;;;;;;;;;;;26.23;52.49;99407.17;1757573;80;20507;-58
2022/06/21 06:47:49;;;;;;;;;;;;;;;26.28;52.21;99397.29;1738195;82;20261;-57
2022/06/21 06:50:59;;;;;;;;;;;;;;;26.38;51.95;99398.00;1699070;84;20213;-57
2022/06/21 06:54:02;;;;;;;;;;;;;;;26.53;51.62;99397.50;1745514;82;20218;-59
2022/06/21 06:57:09;;;;;;;;;;;;;;;26.63;51.34;99395.36;1676144;85;20206;-58
2022/06/21 07:00:24;;;;;;;;;;;;;;;26.74;51.14;99392.69;1678635;85;20302;-57
2022/06/21 07:03:31;;;;;;;;;;;;;;;26.83;50.82;99381.61;1679858;85;20243;-57
2022/06/21 07:06:47;;;;;;;;;;;;;;;26.93;50.59;99382.27;1678550;83;20191;-58
2022/06/21 07:09:56;;;;;;;;;;;;;;;27.06;50.30;99389.91;1685161;85;20551;-60
2022/06/21 07:13:03;;;;;;;;;;;;;;;27.19;50.01;99377.88;1685278;85;20195;-59
2022/06/21 07:16:10;;;;;;;;;;;;;;;27.29;49.67;99372.08;1696583;84;20185;-59
2022/06/21 07:19:15;;;;;;;;;;;;;;;27.38;49.34;99373.05;1713341;84;20248;-57
2022/06/21 07:22:27;;;;;;;;;;;;;;;27.47;49.05;99369.78;1713319;84;20264;-59
2022/06/21 07:25:39;;;;;;;;;;;;;;;27.58;48.76;99358.59;1729203;81;20196;-59
2022/06/21 07:28:58;;;;;;;;;;;;;;;27.67;48.42;99358.70;1714620;83;20188;-59
2022/06/21 07:32:17;;;;;;;;;;;;;;;27.77;48.12;99357.07;1662666;84;20582;-59
2022/06/21 07:35:27;;;;;;;;;;;;;;;27.89;47.80;99353.77;1724422;83;20557;-58
2022/06/21 07:38:40;;;;;;;;;;;;;;;27.98;47.43;99347.09;1736059;81;20203;-58
2022/06/21 07:41:57;;;;;;;;;;;;;;;28.08;47.15;99350.26;1698813;83;20567;-59
2022/06/21 07:45:04;;;;;;;;;;;;;;;28.18;46.95;99338.78;1730528;83;20564;-58
2022/06/21 07:48:32;;;;;;;;;;;;;;;28.32;46.65;99335.36;1712239;83;20205;-59
2022/06/21 07:51:44;;;;;;;;;;;;;;;28.40;46.27;99341.64;1709672;84;20492;-59
2022/06/21 07:54:52;;;;;;;;;;;;;;;28.44;45.83;99339.84;1709668;84;20204;-58
2022/06/21 07:58:03;;;;;;;;;;;;;;;28.44;45.51;99335.05;1719312;83;20615;-56
2022/06/21 08:08:44;;;;;;;;;;;;;;;28.57;44.63;99330.55;1713549;83;20196;-58
2022/06/21 08:11:51;;;;;;;;;;;;;;;28.62;44.35;99329.02;1713758;84;20265;-59
2022/06/21 08:14:58;;;;;;;;;;;;;;;28.66;44.05;99327.22;1711916;83;20232;-59
2022/06/21 08:18:15;;;;;;;;;;;;;;;28.70;43.81;99312.77;1713651;84;20216;-59
2022/06/21 08:21:23;;;;;;;;;;;;;;;28.76;43.50;99315.70;1713154;84;20626;-58
2022/06/21 08:24:43;;;;;;;;;;;;;;;28.80;43.26;99319.53;1712711;84;20228;-59
2022/06/21 08:28:05;;;;;;;;;;;;;;;28.86;42.96;99312.63;1700991;82;20526;-54
2022/06/21 08:31:20;;;;;;;;;;;;;;;28.90;42.74;99315.05;1732780;82;20204;-58
2022/06/21 08:34:29;;;;;;;;;;;;;;;28.99;42.41;99315.92;1743677;82;20212;-59
2022/06/21 08:37:38;;;;;;;;;;;;;;;29.02;42.11;99299.20;1742392;82;20242;-57
2022/06/21 08:41:01;;;;;;;;;;;;;;;29.04;41.88;99290.42;1733528;82;20210;-58
2022/06/21 08:44:18;;;;;;;;;;;;;;;29.14;41.64;99301.47;1700674;84;20216;-58
2022/06/21 08:47:46;;;;;;;;;;;;;;;29.23;41.35;99298.95;1697241;83;20201;-58
2022/06/21 08:51:18;;;;;;;;;;;;;;;29.29;41.03;99288.95;1705305;83;20580;-58
2022/06/21 08:54:32;;;;;;;;;;;;;;;29.33;40.71;99290.78;1703909;83;20252;-58
2022/06/21 08:58:09;;;;;;;;;;;;;;;29.39;40.49;99282.42;1700941;83;20226;-56
2022/06/21 09:01:21;;;;;;;;;;;;;;;29.43;40.25;99276.97;1703196;83;20250;-57
2022/06/21 09:04:27;;;;;;;;;;;;;;;29.51;40.10;99279.80;1646502;86;20650;-56
2022/06/21 09:07:39;;;;;;;;;;;;;;;29.59;39.90;99278.19;1663411;84;20244;-57
2022/06/21 09:11:14;;;;;;;;;;;;;;;29.62;39.64;99282.58;1692783;85;20258;-56
2022/06/21 09:14:29;;;;;;;;;;;;;;;29.64;39.44;99284.53;1678956;85;20263;-57
2022/06/21 09:18:00;;;;;;;;;;;;;;;29.68;39.30;99267.22;1685176;85;20318;-57
2022/06/21 09:21:15;;;;;;;;;;;;;;;29.77;39.14;99250.28;1684562;85;20217;-56
2022/06/21 09:24:30;;;;;;;;;;;;;;;29.88;39.01;99260.94;1725044;83;20252;-57
2022/06/21 09:27:49;;;;;;;;;;;;;;;29.98;38.79;99251.33;1724744;83;20195;-57
2022/06/21 09:31:22;;;;;;;;;;;;;;;30.05;38.53;99246.84;1725698;82;20199;-59
2022/06/21 09:34:49;;;;;;;;;;;;;;;30.11;38.31;99243.30;1704252;83;20192;-57
2022/06/21 09:38:17;;;;;;;;;;;;;;;30.17;38.11;99239.13;1746072;80;20188;-58
2022/06/21 09:41:48;;;;;;;;;;;;;;;30.23;37.95;99245.73;1774902;80;20193;-57
2022/06/21 09:45:01;;;;;;;;;;;;;;;30.25;37.72;99233.53;1725447;83;20571;-58
2022/06/21 09:48:25;;;;;;;;;;;;;;;30.30;37.54;99236.16;1725702;83;20199;-58
2022/06/21 09:51:38;;;;;;;;;;;;;;;30.35;37.27;99237.41;1724684;83;20207;-57
2022/06/21 09:54:43;;;;;;;;;;;;;;;30.45;37.06;99234.83;1722752;83;20215;-58
2022/06/21 09:58:03;;;;;;;;;;;;;;;30.49;36.88;99223.94;1724563;83;20247;-57
2022/06/21 10:01:11;;;;;;;;;;;;;;;30.57;36.63;99225.11;1724985;83;20246;-56
2022/06/21 10:04:39;;;;;;;;;;;;;;;30.61;36.46;99220.43;1725172;83;20203;-55
2022/06/21 10:07:56;;;;;;;;;;;;;;;30.68;36.29;99210.03;1724864;82;20552;-56
2022/06/21 10:11:21;;;;;;;;;;;;;;;30.81;36.21;99202.78;1717108;82;20338;-58
2022/06/21 10:14:46;;;;;;;;;;;;;;;30.92;36.06;99195.59;1746230;82;20245;-58
2022/06/21 10:18:11;;;;;;;;;;;;;;;31.02;35.88;99192.98;1742266;82;20204;-58
2022/06/21 10:21:33;;;;;;;;;;;;;;;31.16;35.86;99192.20;1744727;81;20221;-59
2022/06/21 10:24:49;;;;;;;;;;;;;;;31.28;35.71;99180.98;1744943;80;20214;-57
2022/06/21 10:28:30;;;;;;;;;;;;;;;31.38;35.55;99179.22;1728785;80;20213;-57
2022/06/21 10:31:57;;;;;;;;;;;;;;;31.46;35.42;99182.58;1713001;81;20647;-57
2022/06/21 10:35:30;;;;;;;;;;;;;;;31.51;35.25;99186.60;1753061;81;20253;-58
2022/06/21 10:39:07;;;;;;;;;;;;;;;31.47;35.03;99179.41;1765721;81;20604;-58
2022/06/21 10:46:00;;;;;;;;;;;;;;;31.55;34.77;99156.47;1774063;81;20208;-58
2022/06/21 10:49:22;;;;;;;;;;;;;;;31.68;34.59;99161.84;1775565;81;20203;-56
2022/06/21 10:52:32;;;;;;;;;;;;;;;31.79;34.42;99159.45;1754735;80;20229;-56
2022/06/21 10:57:09;;;;;;;;;;;;;;;31.81;34.19;99157.09;1742227;82;20210;-58
2022/06/21 10:59:10;;;;;;;;;;;;;;;31.84;34.02;99147.36;1730704;82;20550;-58
2022/06/21 11:02:18;;;;;;;;;;;;;;;31.90;33.87;99145.16;1702669;84;20192;-59
2022/06/21 11:05:30;;;;;;;;;;;;;;;31.98;33.76;99132.94;1747063;81;20241;-58
2022/06/21 11:08:58;;;;;;;;;;;;;;;32.03;33.63;99118.57;1715781;82;20188;-58
2022/06/21 11:16:09;;;;;;;;;;;;;;;32.12;33.35;99129.22;1775605;81;20203;-59
2022/06/21 11:19:50;;;;;;;;;;;;;;;32.25;33.23;99118.76;1774749;81;20251;-56
2022/06/21 11:23:18;;;;;;;;;;;;;;;32.32;33.09;99105.67;1748126;80;20200;-56
2022/06/21 11:26:36;;;;;;;;;;;;;;;32.40;33.01;99106.20;1720525;83;20216;-57
2022/06/21 11:29:53;;;;;;;;;;;;;;;32.54;32.85;99103.87;1716103;83;20279;-57
2022/06/21 11:33:30;;;;;;;;;;;;;;;32.56;32.59;99101.52;1743914;82;20321;-60
2022/06/21 11:36:45;;;;;;;;;;;;;;;32.54;32.45;99105.89;1733099;82;20198;-58
2022/06/21 11:40:07;;;;;;;;;;;;;;;32.53;32.16;99095.72;1746974;82;20688;-57
2022/06/21 11:43:10;;;;;;;;;;;;;;;32.53;31.96;99091.47;1752068;80;20214;-57
2022/06/21 11:46:39;;;;;;;;;;;;;;;32.57;31.80;99091.83;1738178;82;20546;-58
2022/06/21 11:50:03;;;;;;;;;;;;;;;32.52;31.59;99082.16;1734163;82;20230;-58
2022/06/21 11:53:24;;;;;;;;;;;;;;;32.52;31.46;99088.41;1740417;82;20278;-57
2022/06/21 11:56:52;;;;;;;;;;;;;;;32.50;31.21;99066.09;1716885;83;20215;-58
2022/06/21 12:00:15;;;;;;;;;;;;;;;32.49;31.06;99069.28;1733514;80;20463;-58
2022/06/21 12:03:41;;;;;;;;;;;;;;;32.50;30.98;99068.08;1743664;80;20221;-57
2022/06/21 12:07:05;;;;;;;;;;;;;;;32.51;30.79;99057.01;1731523;81;20228;-57
2022/06/21 12:10:22;;;;;;;;;;;;;;;32.47;30.65;99052.62;1742816;80;20220;-59
2022/06/21 12:13:48;;;;;;;;;;;;;;;32.53;30.58;99054.63;1723094;82;20227;-58
2022/06/21 12:17:12;;;;;;;;;;;;;;;32.52;30.43;99035.39;1718960;82;20226;-58
2022/06/21 12:20:21;;;;;;;;;;;;;;;32.50;30.21;99040.58;1745770;80;20220;-58
2022/06/21 12:23:44;;;;;;;;;;;;;;;32.52;30.09;99038.81;1745476;80;20221;-58
2022/06/21 12:26:50;;;;;;;;;;;;;;;32.55;29.90;99040.36;1740485;80;20613;-58
2022/06/21 12:30:05;;;;;;;;;;;;;;;32.54;29.76;99028.77;1724897;80;20213;-56
2022/06/21 12:33:11;;;;;;;;;;;;;;;32.54;29.65;99025.93;1770976;80;20559;-57
2022/06/21 12:36:26;;;;;;;;;;;;;;;32.49;29.59;99019.68;1774204;81;20196;-55
2022/06/21 12:39:49;;;;;;;;;;;;;;;32.47;29.49;99014.95;1775122;81;20319;-55
2022/06/21 12:43:24;;;;;;;;;;;;;;;32.46;29.44;99010.47;1774469;81;20674;-55
2022/06/21 12:46:31;;;;;;;;;;;;;;;32.51;29.38;99004.58;1774355;81;20231;-56
2022/06/21 12:50:12;;;;;;;;;;;;;;;32.48;29.30;99005.26;1765867;80;20214;-56
2022/06/21 12:53:32;;;;;;;;;;;;;;;32.39;29.24;98998.30;1745577;81;20647;-56
2022/06/21 12:56:47;;;;;;;;;;;;;;;32.37;29.18;98998.40;1716484;83;20204;-57
2022/06/21 13:00:28;;;;;;;;;;;;;;;32.30;29.09;98983.36;1719345;82;20341;-55
2022/06/21 13:03:58;;;;;;;;;;;;;;;32.24;29.03;98990.45;1718132;83;20264;-55
2022/06/21 13:07:23;;;;;;;;;;;;;;;32.20;29.06;98988.09;1737795;80;20203;-55
2022/06/21 13:10:56;;;;;;;;;;;;;;;32.16;29.03;98981.45;1729564;80;20237;-55
2022/06/21 13:14:26;;;;;;;;;;;;;;;32.16;28.96;98990.57;1721368;82;20210;-56
2022/06/21 13:17:44;;;;;;;;;;;;;;;32.14;28.91;98980.17;1726545;82;20238;-55
2022/06/21 13:21:09;;;;;;;;;;;;;;;32.14;28.95;98975.34;1732534;81;20207;-55
2022/06/21 13:24:22;;;;;;;;;;;;;;;32.21;28.92;98975.57;1743509;81;20225;-57
2022/06/21 13:27:50;;;;;;;;;;;;;;;32.23;28.91;98971.81;1734609;81;20605;-57
2022/06/21 13:31:09;;;;;;;;;;;;;;;32.23;28.94;98971.81;1742239;80;20206;-58
2022/06/21 13:34:45;;;;;;;;;;;;;;;32.21;28.94;98969.91;1723685;82;20197;-58
2022/06/21 13:37:59;;;;;;;;;;;;;;;32.28;28.86;98971.58;1729547;82;20247;-55
2022/06/21 13:44:49;;;;;;;;;;;;;;;32.21;28.88;98968.48;1754243;80;20761;-58
2022/06/21 13:48:04;;;;;;;;;;;;;;;32.18;28.88;98972.03;1713188;84;20612;-56
2022/06/21 13:51:22;;;;;;;;;;;;;;;32.08;28.86;98962.56;1713201;84;20583;-55
2022/06/21 13:54:41;;;;;;;;;;;;;;;32.01;28.88;98956.67;1745576;82;20232;-52
2022/06/21 13:57:57;;;;;;;;;;;;;;;32.01;28.88;98951.00;1752974;81;20664;-55
2022/06/21 14:01:38;;;;;;;;;;;;;;;32.03;28.85;98965.65;1753730;81;20239;-57
2022/06/21 14:04:53;;;;;;;;;;;;;;;32.03;28.86;98947.24;1714532;84;20600;-52
2022/06/21 14:08:07;;;;;;;;;;;;;;;32.07;28.74;98941.67;1763387;81;20324;-53
2022/06/21 14:11:18;;;;;;;;;;;;;;;32.08;28.72;98953.27;1774578;80;20355;-52
2022/06/21 14:14:38;;;;;;;;;;;;;;;32.08;28.69;98946.19;1750617;80;20197;-55
2022/06/21 14:18:13;;;;;;;;;;;;;;;32.08;28.61;98934.24;1755919;82;20307;-54
2022/06/21 14:21:31;;;;;;;;;;;;;;;32.02;28.49;98932.83;1718761;82;20220;-54
2022/06/21 14:24:46;;;;;;;;;;;;;;;31.97;28.40;98940.13;1715083;82;20222;-55
2022/06/21 14:28:13;;;;;;;;;;;;;;;31.94;28.33;98930.34;1720506;82;20210;-54
2022/06/21 14:31:34;;;;;;;;;;;;;;;31.94;28.24;98930.92;1713497;82;20207;-54
2022/06/21 14:34:57;;;;;;;;;;;;;;;31.97;28.21;98926.81;1716790;82;20210;-54
2022/06/21 14:38:06;;;;;;;;;;;;;;;32.02;28.17;98929.19;1724241;82;20273;-56
2022/06/21 14:41:16;;;;;;;;;;;;;;;32.02;28.10;98924.33;1718686;82;20213;-55
2022/06/21 14:44:27;;;;;;;;;;;;;;;32.00;28.12;98920.44;1718058;82;20274;-55
2022/06/21 14:47:44;;;;;;;;;;;;;;;31.96;28.07;98914.42;1724188;82;20282;-56
2022/06/21 14:51:04;;;;;;;;;;;;;;;31.94;28.06;98909.69;1742303;80;20200;-56
2022/06/21 14:54:21;;;;;;;;;;;;;;;31.93;28.04;98913.70;1751264;79;20221;-56
2022/06/21 14:57:42;;;;;;;;;;;;;;;31.92;28.04;98904.98;1760298;79;20661;-55
2022/06/21 15:01:12;;;;;;;;;;;;;;;31.94;28.04;98908.27;1760964;79;20202;-54
2022/06/21 15:04:44;;;;;;;;;;;;;;;31.97;28.07;98904.73;1778428;79;20229;-55
2022/06/21 15:08:05;;;;;;;;;;;;;;;31.98;28.04;98896.50;1775980;79;20194;-55
2022/06/21 15:11:18;;;;;;;;;;;;;;;31.92;28.01;98897.91;1760900;79;20217;-56
2022/06/21 15:14:25;;;;;;;;;;;;;;;31.88;28.05;98892.70;1766974;79;20249;-55
2022/06/21 15:17:49;;;;;;;;;;;;;;;31.90;28.03;98893.18;1759566;79;20807;-55
2022/06/21 15:21:13;;;;;;;;;;;;;;;31.93;28.07;98884.81;1748703;80;20208;-54
2022/06/21 15:24:26;;;;;;;;;;;;;;;31.96;28.08;98884.11;1748087;81;20207;-55
2022/06/21 15:27:36;;;;;;;;;;;;;;;31.97;28.05;98881.50;1725165;82;20510;-55
2022/06/21 15:30:49;;;;;;;;;;;;;;;32.06;28.04;98879.16;1724180;82;20215;-55
2022/06/21 15:34:00;;;;;;;;;;;;;;;32.08;27.96;98879.02;1724778;83;20242;-54
2022/06/21 15:37:18;;;;;;;;;;;;;;;31.94;27.95;98877.12;1725074;83;20218;-53
2022/06/21 15:40:35;;;;;;;;;;;;;;;31.77;27.96;98871.66;1757671;80;20597;-53
2022/06/21 15:43:44;;;;;;;;;;;;;;;31.63;28.03;98868.33;1771017;81;20285;-56
2022/06/21 15:50:13;;;;;;;;;;;;;;;31.38;28.06;98862.38;1730411;80;20222;-55
2022/06/21 15:53:32;;;;;;;;;;;;;;;31.24;28.06;98854.16;1769747;81;20597;-56
2022/06/21 15:56:58;;;;;;;;;;;;;;;31.12;28.08;98861.77;1724462;83;20215;-54
2022/06/21 16:00:33;;;;;;;;;;;;;;;31.10;28.13;98863.53;1724684;82;20211;-56
2022/06/21 16:03:41;;;;;;;;;;;;;;;31.24;28.11;98861.83;1748591;80;20551;-55
2022/06/21 16:06:50;;;;;;;;;;;;;;;31.36;28.26;98887.35;1770678;80;20547;-55
2022/06/21 16:09:59;;;;;;;;;;;;;;;31.16;28.65;98891.02;1769900;81;20254;-55
2022/06/21 16:13:05;;;;;;;;;;;;;;;30.74;29.19;98904.88;1770498;81;20277;-56
2022/06/21 16:16:13;;;;;;;;;;;;;;;30.22;29.80;98906.61;1757170;81;20223;-54
2022/06/21 16:19:22;;;;;;;;;;;;;;;29.87;30.38;98924.86;1775066;81;20299;-54
2022/06/21 16:22:27;;;;;;;;;;;;;;;29.47;30.93;98920.61;1749089;82;20548;-55
2022/06/21 16:25:37;;;;;;;;;;;;;;;29.25;31.53;98927.86;1757583;81;20227;-55
2022/06/21 16:29:12;;;;;;;;;;;;;;;29.12;32.02;98933.92;1716616;83;20272;-55
2022/06/21 16:35:54;;;;;;;;;;;;;;;28.09;33.28;98946.09;1751829;80;20200;-53
2022/06/21 16:39:03;;;;;;;;;;;;;;;27.62;33.93;98963.09;1751338;80;20278;-54
2022/06/21 16:45:41;;;;;;;;;;;;;;;26.99;35.12;98958.81;1709545;82;20543;-54
2022/06/21 16:48:51;;;;;;;;;;;;;;;26.73;35.72;98999.28;1739777;80;20221;-54
2022/06/21 16:51:57;;;;;;;;;;;;;;;26.52;36.23;98991.00;1743657;80;20590;-55
2022/06/21 16:55:14;;;;;;;;;;;;;;;26.41;36.72;98993.20;1741017;80;20204;-55
2022/06/21 16:58:18;;;;;;;;;;;;;;;26.30;37.14;98993.72;1741341;80;20235;-55
2022/06/21 17:01:29;;;;;;;;;;;;;;;26.13;37.63;99006.95;1693416;84;20203;-55
2022/06/21 17:04:38;;;;;;;;;;;;;;;26.00;38.05;99012.56;1673825;86;20214;-55
2022/06/21 17:07:42;;;;;;;;;;;;;;;25.85;38.47;99007.19;1731520;82;20237;-53
2022/06/21 17:14:13;;;;;;;;;;;;;;;25.61;39.26;99016.34;1715944;82;20251;-53
2022/06/21 17:17:29;;;;;;;;;;;;;;;25.47;39.57;99018.23;1693871;83;20225;-54
2022/06/21 17:20:57;;;;;;;;;;;;;;;25.28;39.89;99021.04;1722387;83;20214;-54
2022/06/21 17:24:13;;;;;;;;;;;;;;;25.08;40.24;99022.77;1733139;81;20231;-54
2022/06/21 17:27:28;;;;;;;;;;;;;;;24.94;40.59;99018.47;1733561;81;20630;-54
2022/06/21 17:30:29;;;;;;;;;;;;;;;24.81;40.80;99033.80;1733810;81;20218;-54
2022/06/21 17:33:45;;;;;;;;;;;;;;;24.64;41.02;99033.45;1729573;82;20206;-54